sensor_id;sensor_type;location;lat;lon;timestamp;P1;durP1;ratioP1;P2;durP2;ratioP2
2191;SDS011;1102;49.718;11.902;2023-03-13T00:01:12;13.00;;;8.47;;
2191;SDS011;1102;49.718;11.902;2023-03-13T00:04:02;14.30;;;10.10;;
2191;SDS011;1102;49.718;11.902;2023-03-13T00:06:30;12.90;;;9.20;;
2191;SDS011;1102;49.718;11.902;2023-03-13T00:09:02;13.83;;;8.63;;
2191;SDS011;1102;49.718;11.902;2023-03-13T00:11:30;12.17;;;8.53;;
2191;SDS011;1102;49.718;11.902;2023-03-13T00:13:58;14.13;;;9.30;;
2191;SDS011;1102;49.718;11.902;2023-03-13T00:16:27;19.03;;;11.07;;
2191;SDS011;1102;49.718;11.902;2023-03-13T00:18:55;12.60;;;8.77;;
2191;SDS011;1102;49.718;11.902;2023-03-13T00:21:23;21.70;;;11.63;;
2191;SDS011;1102;49.718;11.902;2023-03-13T00:23:52;18.23;;;11.20;;
2191;SDS011;1102;49.718;11.902;2023-03-13T00:26:19;14.40;;;10.07;;
2191;SDS011;1102;49.718;11.902;2023-03-13T00:28:48;18.30;;;12.13;;
2191;SDS011;1102;49.718;11.902;2023-03-13T00:31:17;9.97;;;8.90;;
2191;SDS011;1102;49.718;11.902;2023-03-13T00:33:49;13.93;;;10.37;;
2191;SDS011;1102;49.718;11.902;2023-03-13T00:36:19;9.93;;;8.07;;
2191;SDS011;1102;49.718;11.902;2023-03-13T00:38:50;19.03;;;7.73;;
2191;SDS011;1102;49.718;11.902;2023-03-13T00:41:19;11.63;;;8.90;;
2191;SDS011;1102;49.718;11.902;2023-03-13T00:43:48;17.00;;;12.20;;
2191;SDS011;1102;49.718;11.902;2023-03-13T00:46:16;22.60;;;12.00;;
2191;SDS011;1102;49.718;11.902;2023-03-13T00:48:45;24.10;;;12.17;;
2191;SDS011;1102;49.718;11.902;2023-03-13T00:51:13;17.43;;;11.33;;
2191;SDS011;1102;49.718;11.902;2023-03-13T00:53:41;16.50;;;12.47;;
2191;SDS011;1102;49.718;11.902;2023-03-13T00:56:09;33.07;;;15.17;;
2191;SDS011;1102;49.718;11.902;2023-03-13T00:58:39;19.97;;;13.13;;
2191;SDS011;1102;49.718;11.902;2023-03-13T01:01:11;24.00;;;11.27;;
2191;SDS011;1102;49.718;11.902;2023-03-13T01:03:42;18.03;;;12.10;;
2191;SDS011;1102;49.718;11.902;2023-03-13T01:06:12;18.63;;;11.63;;
2191;SDS011;1102;49.718;11.902;2023-03-13T01:08:40;26.10;;;10.33;;
2191;SDS011;1102;49.718;11.902;2023-03-13T01:13:36;22.00;;;12.60;;
2191;SDS011;1102;49.718;11.902;2023-03-13T01:16:05;17.13;;;12.80;;
2191;SDS011;1102;49.718;11.902;2023-03-13T01:18:33;20.50;;;12.73;;
2191;SDS011;1102;49.718;11.902;2023-03-13T01:21:01;21.83;;;12.50;;
2191;SDS011;1102;49.718;11.902;2023-03-13T01:23:28;22.00;;;11.77;;
2191;SDS011;1102;49.718;11.902;2023-03-13T01:25:55;16.57;;;10.67;;
2191;SDS011;1102;49.718;11.902;2023-03-13T01:28:23;20.27;;;11.93;;
2191;SDS011;1102;49.718;11.902;2023-03-13T01:30:50;18.27;;;11.33;;
2191;SDS011;1102;49.718;11.902;2023-03-13T01:33:17;16.93;;;11.67;;
2191;SDS011;1102;49.718;11.902;2023-03-13T01:35:45;16.70;;;10.77;;
2191;SDS011;1102;49.718;11.902;2023-03-13T01:38:12;14.70;;;11.13;;
2191;SDS011;1102;49.718;11.902;2023-03-13T01:40:40;15.10;;;9.70;;
2191;SDS011;1102;49.718;11.902;2023-03-13T01:43:24;16.20;;;10.20;;
2191;SDS011;1102;49.718;11.902;2023-03-13T01:46:04;15.30;;;10.40;;
2191;SDS011;1102;49.718;11.902;2023-03-13T01:49:01;13.80;;;10.30;;
2191;SDS011;1102;49.718;11.902;2023-03-13T01:51:57;12.07;;;9.60;;
2191;SDS011;1102;49.718;11.902;2023-03-13T01:54:29;13.30;;;10.47;;
2191;SDS011;1102;49.718;11.902;2023-03-13T01:57:04;13.00;;;9.07;;
2191;SDS011;1102;49.718;11.902;2023-03-13T01:59:36;13.60;;;9.77;;
2191;SDS011;1102;49.718;11.902;2023-03-13T02:02:09;11.43;;;8.40;;
2191;SDS011;1102;49.718;11.902;2023-03-13T02:04:38;12.30;;;9.80;;
2191;SDS011;1102;49.718;11.902;2023-03-13T02:07:11;19.03;;;8.63;;
2191;SDS011;1102;49.718;11.902;2023-03-13T02:09:43;13.60;;;9.27;;
2191;SDS011;1102;49.718;11.902;2023-03-13T02:12:17;14.80;;;8.40;;
2191;SDS011;1102;49.718;11.902;2023-03-13T02:14:49;13.13;;;8.37;;
2191;SDS011;1102;49.718;11.902;2023-03-13T02:17:18;15.50;;;9.23;;
2191;SDS011;1102;49.718;11.902;2023-03-13T02:19:46;17.43;;;8.77;;
2191;SDS011;1102;49.718;11.902;2023-03-13T02:27:26;10.83;;;8.10;;
2191;SDS011;1102;49.718;11.902;2023-03-13T02:29:53;13.17;;;6.70;;
2191;SDS011;1102;49.718;11.902;2023-03-13T02:32:20;8.20;;;4.87;;
2191;SDS011;1102;49.718;11.902;2023-03-13T02:34:48;7.00;;;5.20;;
2191;SDS011;1102;49.718;11.902;2023-03-13T02:37:18;7.37;;;5.03;;
2191;SDS011;1102;49.718;11.902;2023-03-13T02:39:46;10.20;;;4.80;;
2191;SDS011;1102;49.718;11.902;2023-03-13T02:42:16;5.83;;;4.87;;
2191;SDS011;1102;49.718;11.902;2023-03-13T02:44:46;14.27;;;5.30;;
2191;SDS011;1102;49.718;11.902;2023-03-13T02:47:17;8.53;;;5.63;;
2191;SDS011;1102;49.718;11.902;2023-03-13T02:49:45;6.63;;;4.30;;
2191;SDS011;1102;49.718;11.902;2023-03-13T02:52:13;5.83;;;4.53;;
2191;SDS011;1102;49.718;11.902;2023-03-13T02:54:43;5.77;;;4.60;;
2191;SDS011;1102;49.718;11.902;2023-03-13T02:57:13;7.40;;;4.23;;
2191;SDS011;1102;49.718;11.902;2023-03-13T02:59:39;8.40;;;4.13;;
2191;SDS011;1102;49.718;11.902;2023-03-13T03:02:06;8.90;;;5.03;;
2191;SDS011;1102;49.718;11.902;2023-03-13T03:04:35;8.10;;;5.57;;
2191;SDS011;1102;49.718;11.902;2023-03-13T03:07:01;12.33;;;4.60;;
2191;SDS011;1102;49.718;11.902;2023-03-13T03:09:29;8.37;;;5.07;;
2191;SDS011;1102;49.718;11.902;2023-03-13T03:12:00;5.50;;;4.13;;
2191;SDS011;1102;49.718;11.902;2023-03-13T03:14:27;8.40;;;3.97;;
2191;SDS011;1102;49.718;11.902;2023-03-13T03:16:55;6.17;;;4.63;;
2191;SDS011;1102;49.718;11.902;2023-03-13T03:19:23;11.40;;;5.23;;
2191;SDS011;1102;49.718;11.902;2023-03-13T03:21:50;10.43;;;3.83;;
2191;SDS011;1102;49.718;11.902;2023-03-13T03:24:18;7.00;;;3.90;;
2191;SDS011;1102;49.718;11.902;2023-03-13T03:26:44;6.80;;;3.90;;
2191;SDS011;1102;49.718;11.902;2023-03-13T03:29:19;21.57;;;4.67;;
2191;SDS011;1102;49.718;11.902;2023-03-13T03:31:49;9.70;;;4.63;;
2191;SDS011;1102;49.718;11.902;2023-03-13T03:34:16;5.83;;;3.20;;
2191;SDS011;1102;49.718;11.902;2023-03-13T03:36:44;8.43;;;3.90;;
2191;SDS011;1102;49.718;11.902;2023-03-13T03:39:11;6.83;;;4.40;;
2191;SDS011;1102;49.718;11.902;2023-03-13T03:41:38;6.03;;;4.63;;
2191;SDS011;1102;49.718;11.902;2023-03-13T03:44:05;4.83;;;2.90;;
2191;SDS011;1102;49.718;11.902;2023-03-13T03:46:58;6.07;;;3.50;;
2191;SDS011;1102;49.718;11.902;2023-03-13T03:49:27;7.77;;;4.13;;
2191;SDS011;1102;49.718;11.902;2023-03-13T03:51:54;5.90;;;3.33;;
2191;SDS011;1102;49.718;11.902;2023-03-13T03:54:27;6.40;;;3.40;;
2191;SDS011;1102;49.718;11.902;2023-03-13T03:56:54;8.33;;;3.40;;
2191;SDS011;1102;49.718;11.902;2023-03-13T03:59:21;7.00;;;3.50;;
2191;SDS011;1102;49.718;11.902;2023-03-13T04:01:55;12.43;;;4.10;;
2191;SDS011;1102;49.718;11.902;2023-03-13T04:04:24;11.30;;;3.77;;
2191;SDS011;1102;49.718;11.902;2023-03-13T04:06:57;14.53;;;3.40;;
2191;SDS011;1102;49.718;11.902;2023-03-13T04:09:26;8.90;;;4.50;;
2191;SDS011;1102;49.718;11.902;2023-03-13T04:11:52;11.57;;;3.63;;
2191;SDS011;1102;49.718;11.902;2023-03-13T04:14:19;9.40;;;4.80;;
2191;SDS011;1102;49.718;11.902;2023-03-13T04:16:46;9.83;;;4.50;;
2191;SDS011;1102;49.718;11.902;2023-03-13T04:19:14;11.13;;;4.03;;
2191;SDS011;1102;49.718;11.902;2023-03-13T04:21:41;8.03;;;4.67;;
2191;SDS011;1102;49.718;11.902;2023-03-13T04:24:15;9.43;;;4.00;;
2191;SDS011;1102;49.718;11.902;2023-03-13T04:26:43;5.60;;;2.97;;
2191;SDS011;1102;49.718;11.902;2023-03-13T04:29:10;9.90;;;3.90;;
2191;SDS011;1102;49.718;11.902;2023-03-13T04:31:55;4.20;;;2.93;;
2191;SDS011;1102;49.718;11.902;2023-03-13T04:34:31;10.30;;;3.40;;
2191;SDS011;1102;49.718;11.902;2023-03-13T04:37:12;5.73;;;3.27;;
2191;SDS011;1102;49.718;11.902;2023-03-13T04:40:00;6.53;;;3.53;;
2191;SDS011;1102;49.718;11.902;2023-03-13T04:43:02;5.93;;;3.00;;
2191;SDS011;1102;49.718;11.902;2023-03-13T04:45:51;9.03;;;5.00;;
2191;SDS011;1102;49.718;11.902;2023-03-13T04:48:38;7.10;;;3.07;;
2191;SDS011;1102;49.718;11.902;2023-03-13T04:51:21;9.83;;;3.20;;
2191;SDS011;1102;49.718;11.902;2023-03-13T04:53:55;9.93;;;3.33;;
2191;SDS011;1102;49.718;11.902;2023-03-13T04:56:54;11.13;;;4.30;;
2191;SDS011;1102;49.718;11.902;2023-03-13T04:59:41;9.37;;;3.70;;
2191;SDS011;1102;49.718;11.902;2023-03-13T05:02:31;4.80;;;3.40;;
2191;SDS011;1102;49.718;11.902;2023-03-13T05:05:06;8.47;;;3.80;;
2191;SDS011;1102;49.718;11.902;2023-03-13T05:07:56;12.47;;;8.77;;
2191;SDS011;1102;49.718;11.902;2023-03-13T05:10:25;9.60;;;3.07;;
2191;SDS011;1102;49.718;11.902;2023-03-13T05:13:15;3.47;;;2.50;;
2191;SDS011;1102;49.718;11.902;2023-03-13T05:15:52;3.93;;;3.13;;
2191;SDS011;1102;49.718;11.902;2023-03-13T05:18:54;5.97;;;2.70;;
2191;SDS011;1102;49.718;11.902;2023-03-13T05:21:44;3.80;;;2.30;;
2191;SDS011;1102;49.718;11.902;2023-03-13T05:24:29;7.90;;;2.73;;
2191;SDS011;1102;49.718;11.902;2023-03-13T05:27:08;13.97;;;3.70;;
2191;SDS011;1102;49.718;11.902;2023-03-13T05:29:53;2.90;;;2.20;;
2191;SDS011;1102;49.718;11.902;2023-03-13T05:32:38;10.93;;;3.50;;
2191;SDS011;1102;49.718;11.902;2023-03-13T05:35:22;3.93;;;2.63;;
2191;SDS011;1102;49.718;11.902;2023-03-13T05:38:04;4.80;;;3.43;;
2191;SDS011;1102;49.718;11.902;2023-03-13T05:40:38;6.43;;;2.27;;
2191;SDS011;1102;49.718;11.902;2023-03-13T05:43:28;10.00;;;3.43;;
2191;SDS011;1102;49.718;11.902;2023-03-13T05:46:20;10.90;;;3.00;;
2191;SDS011;1102;49.718;11.902;2023-03-13T05:49:12;8.07;;;3.13;;
2191;SDS011;1102;49.718;11.902;2023-03-13T05:52:00;5.07;;;3.23;;
2191;SDS011;1102;49.718;11.902;2023-03-13T05:54:29;4.43;;;2.80;;
2191;SDS011;1102;49.718;11.902;2023-03-13T05:57:11;9.17;;;2.90;;
2191;SDS011;1102;49.718;11.902;2023-03-13T05:59:49;4.70;;;3.00;;
2191;SDS011;1102;49.718;11.902;2023-03-13T06:02:35;6.60;;;3.20;;
2191;SDS011;1102;49.718;11.902;2023-03-13T06:05:03;5.33;;;2.57;;
2191;SDS011;1102;49.718;11.902;2023-03-13T06:07:30;4.87;;;2.57;;
2191;SDS011;1102;49.718;11.902;2023-03-13T06:09:57;5.53;;;2.60;;
2191;SDS011;1102;49.718;11.902;2023-03-13T06:12:23;6.60;;;2.90;;
2191;SDS011;1102;49.718;11.902;2023-03-13T06:14:50;5.27;;;2.30;;
2191;SDS011;1102;49.718;11.902;2023-03-13T06:17:48;11.70;;;3.30;;
2191;SDS011;1102;49.718;11.902;2023-03-13T06:20:15;2.87;;;2.67;;
2191;SDS011;1102;49.718;11.902;2023-03-13T06:23:02;6.23;;;2.23;;
2191;SDS011;1102;49.718;11.902;2023-03-13T06:25:29;3.47;;;2.20;;
2191;SDS011;1102;49.718;11.902;2023-03-13T06:27:55;4.33;;;2.00;;
2191;SDS011;1102;49.718;11.902;2023-03-13T06:30:22;6.37;;;2.87;;
2191;SDS011;1102;49.718;11.902;2023-03-13T06:32:49;5.37;;;2.60;;
2191;SDS011;1102;49.718;11.902;2023-03-13T06:35:15;4.50;;;2.53;;
2191;SDS011;1102;49.718;11.902;2023-03-13T06:37:42;6.30;;;2.67;;
2191;SDS011;1102;49.718;11.902;2023-03-13T06:40:09;5.83;;;2.80;;
2191;SDS011;1102;49.718;11.902;2023-03-13T06:42:36;5.10;;;2.77;;
2191;SDS011;1102;49.718;11.902;2023-03-13T06:45:03;2.80;;;2.07;;
2191;SDS011;1102;49.718;11.902;2023-03-13T06:47:30;6.20;;;2.40;;
2191;SDS011;1102;49.718;11.902;2023-03-13T06:49:57;3.43;;;2.40;;
2191;SDS011;1102;49.718;11.902;2023-03-13T06:52:24;3.70;;;2.63;;
2191;SDS011;1102;49.718;11.902;2023-03-13T06:55:06;3.27;;;2.53;;
2191;SDS011;1102;49.718;11.902;2023-03-13T06:57:33;4.23;;;2.93;;
2191;SDS011;1102;49.718;11.902;2023-03-13T07:00:00;7.63;;;3.30;;
2191;SDS011;1102;49.718;11.902;2023-03-13T07:02:27;7.63;;;3.37;;
2191;SDS011;1102;49.718;11.902;2023-03-13T07:04:53;4.17;;;2.63;;
2191;SDS011;1102;49.718;11.902;2023-03-13T07:07:20;6.17;;;2.73;;
2191;SDS011;1102;49.718;11.902;2023-03-13T07:09:57;4.10;;;3.30;;
2191;SDS011;1102;49.718;11.902;2023-03-13T07:12:24;5.70;;;3.17;;
2191;SDS011;1102;49.718;11.902;2023-03-13T07:14:51;5.60;;;2.50;;
2191;SDS011;1102;49.718;11.902;2023-03-13T07:17:17;3.17;;;2.87;;
2191;SDS011;1102;49.718;11.902;2023-03-13T07:19:44;4.40;;;3.03;;
2191;SDS011;1102;49.718;11.902;2023-03-13T07:22:11;8.90;;;3.97;;
2191;SDS011;1102;49.718;11.902;2023-03-13T07:24:37;9.13;;;4.60;;
2191;SDS011;1102;49.718;11.902;2023-03-13T07:27:04;7.10;;;3.83;;
2191;SDS011;1102;49.718;11.902;2023-03-13T07:29:33;12.93;;;5.70;;
2191;SDS011;1102;49.718;11.902;2023-03-13T07:32:00;8.10;;;4.20;;
2191;SDS011;1102;49.718;11.902;2023-03-13T07:34:27;14.10;;;7.13;;
2191;SDS011;1102;49.718;11.902;2023-03-13T07:36:53;12.93;;;5.57;;
2191;SDS011;1102;49.718;11.902;2023-03-13T07:39:20;7.50;;;4.50;;
2191;SDS011;1102;49.718;11.902;2023-03-13T07:41:47;8.77;;;4.60;;
2191;SDS011;1102;49.718;11.902;2023-03-13T07:44:15;16.70;;;9.30;;
2191;SDS011;1102;49.718;11.902;2023-03-13T07:46:42;3.23;;;2.93;;
2191;SDS011;1102;49.718;11.902;2023-03-13T07:49:08;3.10;;;2.80;;
2191;SDS011;1102;49.718;11.902;2023-03-13T07:51:35;6.67;;;2.77;;
2191;SDS011;1102;49.718;11.902;2023-03-13T07:54:09;4.20;;;2.30;;
2191;SDS011;1102;49.718;11.902;2023-03-13T07:56:37;4.00;;;1.97;;
2191;SDS011;1102;49.718;11.902;2023-03-13T07:59:04;3.30;;;2.03;;
2191;SDS011;1102;49.718;11.902;2023-03-13T08:01:31;6.03;;;2.80;;
2191;SDS011;1102;49.718;11.902;2023-03-13T08:03:57;4.10;;;2.07;;
2191;SDS011;1102;49.718;11.902;2023-03-13T08:06:28;2.93;;;2.10;;
2191;SDS011;1102;49.718;11.902;2023-03-13T08:08:59;2.60;;;2.10;;
2191;SDS011;1102;49.718;11.902;2023-03-13T08:11:26;5.03;;;3.20;;
2191;SDS011;1102;49.718;11.902;2023-03-13T08:13:54;7.57;;;3.70;;
2191;SDS011;1102;49.718;11.902;2023-03-13T08:16:23;5.17;;;2.40;;
2191;SDS011;1102;49.718;11.902;2023-03-13T08:18:52;5.87;;;3.00;;
2191;SDS011;1102;49.718;11.902;2023-03-13T08:21:21;3.80;;;3.00;;
2191;SDS011;1102;49.718;11.902;2023-03-13T08:23:53;5.43;;;2.97;;
2191;SDS011;1102;49.718;11.902;2023-03-13T08:26:22;6.53;;;2.03;;
2191;SDS011;1102;49.718;11.902;2023-03-13T08:28:51;4.90;;;2.03;;
2191;SDS011;1102;49.718;11.902;2023-03-13T08:31:21;5.77;;;2.30;;
2191;SDS011;1102;49.718;11.902;2023-03-13T08:33:49;3.90;;;2.27;;
2191;SDS011;1102;49.718;11.902;2023-03-13T08:36:18;2.83;;;1.77;;
2191;SDS011;1102;49.718;11.902;2023-03-13T08:38:47;2.53;;;2.33;;
2191;SDS011;1102;49.718;11.902;2023-03-13T08:41:15;2.33;;;1.97;;
2191;SDS011;1102;49.718;11.902;2023-03-13T08:43:44;3.60;;;2.40;;
2191;SDS011;1102;49.718;11.902;2023-03-13T08:46:11;2.03;;;1.93;;
2191;SDS011;1102;49.718;11.902;2023-03-13T08:48:38;1.93;;;1.83;;
2191;SDS011;1102;49.718;11.902;2023-03-13T08:51:06;5.47;;;2.57;;
2191;SDS011;1102;49.718;11.902;2023-03-13T08:53:35;6.27;;;2.43;;
2191;SDS011;1102;49.718;11.902;2023-03-13T08:56:03;2.40;;;1.83;;
2191;SDS011;1102;49.718;11.902;2023-03-13T08:58:31;4.80;;;1.93;;
2191;SDS011;1102;49.718;11.902;2023-03-13T09:01:05;3.30;;;1.70;;
2191;SDS011;1102;49.718;11.902;2023-03-13T09:03:33;6.93;;;2.97;;
2191;SDS011;1102;49.718;11.902;2023-03-13T09:06:01;7.57;;;2.40;;
2191;SDS011;1102;49.718;11.902;2023-03-13T09:08:27;1.90;;;1.70;;
2191;SDS011;1102;49.718;11.902;2023-03-13T09:10:56;4.30;;;2.53;;
2191;SDS011;1102;49.718;11.902;2023-03-13T09:13:34;3.63;;;2.10;;
2191;SDS011;1102;49.718;11.902;2023-03-13T09:16:13;6.70;;;1.90;;
2191;SDS011;1102;49.718;11.902;2023-03-13T09:18:45;3.40;;;1.87;;
2191;SDS011;1102;49.718;11.902;2023-03-13T09:21:13;5.83;;;2.07;;
2191;SDS011;1102;49.718;11.902;2023-03-13T09:23:42;2.37;;;1.97;;
2191;SDS011;1102;49.718;11.902;2023-03-13T09:26:09;4.87;;;1.73;;
2191;SDS011;1102;49.718;11.902;2023-03-13T09:28:36;5.70;;;2.80;;
2191;SDS011;1102;49.718;11.902;2023-03-13T09:31:10;3.43;;;1.60;;
2191;SDS011;1102;49.718;11.902;2023-03-13T09:33:40;8.30;;;4.27;;
2191;SDS011;1102;49.718;11.902;2023-03-13T09:36:07;10.53;;;4.77;;
2191;SDS011;1102;49.718;11.902;2023-03-13T09:38:35;14.10;;;5.50;;
2191;SDS011;1102;49.718;11.902;2023-03-13T09:46:44;3.83;;;2.40;;
2191;SDS011;1102;49.718;11.902;2023-03-13T09:51:59;3.53;;;2.33;;
2191;SDS011;1102;49.718;11.902;2023-03-13T09:54:32;3.30;;;1.80;;
2191;SDS011;1102;49.718;11.902;2023-03-13T09:57:22;5.00;;;2.07;;
2191;SDS011;1102;49.718;11.902;2023-03-13T09:59:58;1.60;;;1.47;;
2191;SDS011;1102;49.718;11.902;2023-03-13T10:02:33;16.53;;;8.80;;
2191;SDS011;1102;49.718;11.902;2023-03-13T10:05:23;5.83;;;3.57;;
2191;SDS011;1102;49.718;11.902;2023-03-13T10:07:57;5.00;;;2.73;;
2191;SDS011;1102;49.718;11.902;2023-03-13T10:10:36;2.97;;;2.07;;
2191;SDS011;1102;49.718;11.902;2023-03-13T10:13:12;5.23;;;1.87;;
2191;SDS011;1102;49.718;11.902;2023-03-13T10:15:49;2.50;;;1.80;;
2191;SDS011;1102;49.718;11.902;2023-03-13T10:18:22;2.07;;;1.87;;
2191;SDS011;1102;49.718;11.902;2023-03-13T10:20:50;1.77;;;1.67;;
2191;SDS011;1102;49.718;11.902;2023-03-13T10:26:04;3.00;;;1.53;;
2191;SDS011;1102;49.718;11.902;2023-03-13T10:28:35;1.93;;;1.70;;
2191;SDS011;1102;49.718;11.902;2023-03-13T10:31:07;7.10;;;2.33;;
2191;SDS011;1102;49.718;11.902;2023-03-13T10:33:39;4.47;;;1.50;;
2191;SDS011;1102;49.718;11.902;2023-03-13T10:36:11;6.67;;;1.90;;
2191;SDS011;1102;49.718;11.902;2023-03-13T10:38:49;2.10;;;1.60;;
2191;SDS011;1102;49.718;11.902;2023-03-13T10:43:52;3.67;;;1.80;;
2191;SDS011;1102;49.718;11.902;2023-03-13T10:46:32;4.20;;;2.00;;
2191;SDS011;1102;49.718;11.902;2023-03-13T10:49:02;2.50;;;1.70;;
2191;SDS011;1102;49.718;11.902;2023-03-13T10:51:37;4.33;;;2.67;;
2191;SDS011;1102;49.718;11.902;2023-03-13T10:56:51;3.80;;;2.80;;
2191;SDS011;1102;49.718;11.902;2023-03-13T10:59:38;4.93;;;3.63;;
2191;SDS011;1102;49.718;11.902;2023-03-13T11:04:51;9.37;;;5.77;;
2191;SDS011;1102;49.718;11.902;2023-03-13T11:07:34;5.33;;;3.77;;
2191;SDS011;1102;49.718;11.902;2023-03-13T11:12:43;6.20;;;4.20;;
2191;SDS011;1102;49.718;11.902;2023-03-13T11:15:15;1.90;;;1.80;;
2191;SDS011;1102;49.718;11.902;2023-03-13T11:17:51;2.93;;;2.00;;
2191;SDS011;1102;49.718;11.902;2023-03-13T11:20:28;2.90;;;1.53;;
2191;SDS011;1102;49.718;11.902;2023-03-13T11:23:08;3.53;;;1.40;;
2191;SDS011;1102;49.718;11.902;2023-03-13T11:25:47;2.27;;;1.70;;
2191;SDS011;1102;49.718;11.902;2023-03-13T11:28:48;3.20;;;1.60;;
2191;SDS011;1102;49.718;11.902;2023-03-13T11:31:46;3.40;;;1.40;;
2191;SDS011;1102;49.718;11.902;2023-03-13T11:34:21;1.73;;;1.40;;
2191;SDS011;1102;49.718;11.902;2023-03-13T11:39:40;2.40;;;1.53;;
2191;SDS011;1102;49.718;11.902;2023-03-13T11:45:59;2.20;;;2.00;;
2191;SDS011;1102;49.718;11.902;2023-03-13T11:51:16;1.20;;;1.10;;
2191;SDS011;1102;49.718;11.902;2023-03-13T11:56:45;2.87;;;1.40;;
2191;SDS011;1102;49.718;11.902;2023-03-13T12:05:02;2.90;;;1.90;;
2191;SDS011;1102;49.718;11.902;2023-03-13T12:10:28;1.70;;;1.50;;
2191;SDS011;1102;49.718;11.902;2023-03-13T12:23:20;2.57;;;1.60;;
2191;SDS011;1102;49.718;11.902;2023-03-13T12:26:06;8.80;;;1.47;;
2191;SDS011;1102;49.718;11.902;2023-03-13T12:31:48;2.00;;;1.60;;
2191;SDS011;1102;49.718;11.902;2023-03-13T12:37:30;2.57;;;2.27;;
2191;SDS011;1102;49.718;11.902;2023-03-13T12:40:25;1.30;;;1.20;;
2191;SDS011;1102;49.718;11.902;2023-03-13T12:54:15;1.20;;;1.10;;
2191;SDS011;1102;49.718;11.902;2023-03-13T12:59:36;1.60;;;1.43;;
2191;SDS011;1102;49.718;11.902;2023-03-13T13:04:58;2.00;;;1.43;;
2191;SDS011;1102;49.718;11.902;2023-03-13T13:07:27;1.40;;;1.30;;
2191;SDS011;1102;49.718;11.902;2023-03-13T13:10:01;2.13;;;1.93;;
2191;SDS011;1102;49.718;11.902;2023-03-13T13:12:41;1.77;;;1.30;;
2191;SDS011;1102;49.718;11.902;2023-03-13T13:15:16;2.20;;;1.53;;
2191;SDS011;1102;49.718;11.902;2023-03-13T13:20:43;2.80;;;1.47;;
2191;SDS011;1102;49.718;11.902;2023-03-13T13:23:26;2.20;;;2.00;;
2191;SDS011;1102;49.718;11.902;2023-03-13T13:37:35;2.50;;;1.57;;
2191;SDS011;1102;49.718;11.902;2023-03-13T13:40:35;2.27;;;2.07;;
2191;SDS011;1102;49.718;11.902;2023-03-13T13:43:03;2.37;;;1.90;;
2191;SDS011;1102;49.718;11.902;2023-03-13T13:45:35;2.97;;;1.70;;
2191;SDS011;1102;49.718;11.902;2023-03-13T14:04:34;2.60;;;2.40;;
2191;SDS011;1102;49.718;11.902;2023-03-13T14:07:04;3.13;;;1.97;;
2191;SDS011;1102;49.718;11.902;2023-03-13T14:15:14;2.67;;;2.47;;
2191;SDS011;1102;49.718;11.902;2023-03-13T14:17:47;2.50;;;1.90;;
2191;SDS011;1102;49.718;11.902;2023-03-13T14:22:58;3.17;;;1.60;;
2191;SDS011;1102;49.718;11.902;2023-03-13T14:25:27;2.33;;;2.13;;
2191;SDS011;1102;49.718;11.902;2023-03-13T14:28:14;1.90;;;1.63;;
2191;SDS011;1102;49.718;11.902;2023-03-13T14:30:43;1.50;;;1.20;;
2191;SDS011;1102;49.718;11.902;2023-03-13T14:33:10;2.13;;;1.93;;
2191;SDS011;1102;49.718;11.902;2023-03-13T14:35:38;3.50;;;1.90;;
2191;SDS011;1102;49.718;11.902;2023-03-13T14:38:05;2.10;;;1.80;;
2191;SDS011;1102;49.718;11.902;2023-03-13T14:40:35;4.50;;;2.10;;
2191;SDS011;1102;49.718;11.902;2023-03-13T14:43:03;5.23;;;2.33;;
2191;SDS011;1102;49.718;11.902;2023-03-13T14:45:39;3.83;;;2.10;;
2191;SDS011;1102;49.718;11.902;2023-03-13T14:50:45;4.20;;;2.40;;
2191;SDS011;1102;49.718;11.902;2023-03-13T14:53:16;2.77;;;2.50;;
2191;SDS011;1102;49.718;11.902;2023-03-13T14:55:45;3.57;;;2.83;;
2191;SDS011;1102;49.718;11.902;2023-03-13T15:00:46;2.90;;;1.50;;
2191;SDS011;1102;49.718;11.902;2023-03-13T15:06:05;6.60;;;2.40;;
2191;SDS011;1102;49.718;11.902;2023-03-13T15:08:36;3.03;;;2.57;;
2191;SDS011;1102;49.718;11.902;2023-03-13T15:13:50;1.87;;;1.77;;
2191;SDS011;1102;49.718;11.902;2023-03-13T15:16:18;2.47;;;2.37;;
2191;SDS011;1102;49.718;11.902;2023-03-13T15:18:47;4.20;;;3.90;;
2191;SDS011;1102;49.718;11.902;2023-03-13T15:23:45;5.73;;;5.13;;
2191;SDS011;1102;49.718;11.902;2023-03-13T15:26:18;5.90;;;3.10;;
2191;SDS011;1102;49.718;11.902;2023-03-13T15:28:44;3.17;;;2.50;;
2191;SDS011;1102;49.718;11.902;2023-03-13T15:31:12;3.00;;;2.00;;
2191;SDS011;1102;49.718;11.902;2023-03-13T15:33:40;3.63;;;2.27;;
2191;SDS011;1102;49.718;11.902;2023-03-13T15:36:08;3.47;;;2.20;;
2191;SDS011;1102;49.718;11.902;2023-03-13T15:38:35;4.00;;;1.53;;
2191;SDS011;1102;49.718;11.902;2023-03-13T15:41:02;2.00;;;1.80;;
2191;SDS011;1102;49.718;11.902;2023-03-13T15:43:29;3.23;;;1.60;;
2191;SDS011;1102;49.718;11.902;2023-03-13T15:45:56;2.50;;;2.20;;
2191;SDS011;1102;49.718;11.902;2023-03-13T15:48:24;4.00;;;3.13;;
2191;SDS011;1102;49.718;11.902;2023-03-13T15:50:57;2.80;;;2.60;;
2191;SDS011;1102;49.718;11.902;2023-03-13T15:53:30;2.60;;;1.97;;
2191;SDS011;1102;49.718;11.902;2023-03-13T15:56:01;3.23;;;2.90;;
2191;SDS011;1102;49.718;11.902;2023-03-13T15:58:29;3.07;;;2.13;;
2191;SDS011;1102;49.718;11.902;2023-03-13T16:00:56;5.23;;;2.10;;
2191;SDS011;1102;49.718;11.902;2023-03-13T16:03:24;9.87;;;7.37;;
2191;SDS011;1102;49.718;11.902;2023-03-13T16:05:52;2.73;;;2.53;;
2191;SDS011;1102;49.718;11.902;2023-03-13T16:08:21;3.57;;;3.27;;
2191;SDS011;1102;49.718;11.902;2023-03-13T16:11:02;9.30;;;7.47;;
2191;SDS011;1102;49.718;11.902;2023-03-13T16:13:29;5.40;;;4.07;;
2191;SDS011;1102;49.718;11.902;2023-03-13T16:15:56;7.07;;;4.33;;
2191;SDS011;1102;49.718;11.902;2023-03-13T16:18:24;3.03;;;2.10;;
2191;SDS011;1102;49.718;11.902;2023-03-13T16:20:51;4.43;;;3.10;;
2191;SDS011;1102;49.718;11.902;2023-03-13T16:23:18;3.13;;;2.73;;
2191;SDS011;1102;49.718;11.902;2023-03-13T16:25:45;4.50;;;3.50;;
2191;SDS011;1102;49.718;11.902;2023-03-13T16:28:13;2.40;;;2.20;;
2191;SDS011;1102;49.718;11.902;2023-03-13T16:30:41;4.60;;;3.17;;
2191;SDS011;1102;49.718;11.902;2023-03-13T16:33:12;3.00;;;2.30;;
2191;SDS011;1102;49.718;11.902;2023-03-13T16:35:40;3.50;;;2.47;;
2191;SDS011;1102;49.718;11.902;2023-03-13T16:38:08;2.57;;;2.30;;
2191;SDS011;1102;49.718;11.902;2023-03-13T16:40:36;9.00;;;2.03;;
2191;SDS011;1102;49.718;11.902;2023-03-13T16:43:03;3.10;;;2.40;;
2191;SDS011;1102;49.718;11.902;2023-03-13T16:45:30;2.70;;;2.50;;
2191;SDS011;1102;49.718;11.902;2023-03-13T16:47:56;3.00;;;2.20;;
2191;SDS011;1102;49.718;11.902;2023-03-13T16:50:36;2.60;;;2.40;;
2191;SDS011;1102;49.718;11.902;2023-03-13T16:53:03;2.23;;;2.13;;
2191;SDS011;1102;49.718;11.902;2023-03-13T16:55:30;1.90;;;1.67;;
2191;SDS011;1102;49.718;11.902;2023-03-13T16:58:02;4.93;;;2.20;;
2191;SDS011;1102;49.718;11.902;2023-03-13T17:00:30;5.07;;;2.30;;
2191;SDS011;1102;49.718;11.902;2023-03-13T17:02:57;5.23;;;3.00;;
2191;SDS011;1102;49.718;11.902;2023-03-13T17:05:25;10.00;;;2.30;;
2191;SDS011;1102;49.718;11.902;2023-03-13T17:07:52;2.03;;;1.73;;
2191;SDS011;1102;49.718;11.902;2023-03-13T17:10:29;2.70;;;2.40;;
2191;SDS011;1102;49.718;11.902;2023-03-13T17:12:58;3.90;;;1.67;;
2191;SDS011;1102;49.718;11.902;2023-03-13T17:15:25;2.80;;;2.60;;
2191;SDS011;1102;49.718;11.902;2023-03-13T17:17:54;3.43;;;2.40;;
2191;SDS011;1102;49.718;11.902;2023-03-13T17:20:22;2.70;;;2.00;;
2191;SDS011;1102;49.718;11.902;2023-03-13T17:22:51;4.23;;;2.10;;
2191;SDS011;1102;49.718;11.902;2023-03-13T17:25:18;2.60;;;2.40;;
2191;SDS011;1102;49.718;11.902;2023-03-13T17:27:45;2.93;;;2.23;;
2191;SDS011;1102;49.718;11.902;2023-03-13T17:32:49;2.70;;;2.00;;
2191;SDS011;1102;49.718;11.902;2023-03-13T17:35:17;4.83;;;3.13;;
2191;SDS011;1102;49.718;11.902;2023-03-13T17:37:45;3.27;;;2.57;;
2191;SDS011;1102;49.718;11.902;2023-03-13T17:42:42;2.33;;;2.10;;
2191;SDS011;1102;49.718;11.902;2023-03-13T17:45:10;8.77;;;3.00;;
2191;SDS011;1102;49.718;11.902;2023-03-13T17:47:39;4.33;;;2.57;;